Time;durP1;ratioP1;P1;durP2;ratioP2;P2;SDS_P1;SDS_P2;PMS_P1;PMS_P2;Temp;Humidity;BMP_temperature;BMP_pressure;BME280_temperature;BME280_humidity;BME280_pressure;Samples;Min_cycle;Max_cycle;Signal;HPM_P1;HPM_P2
2023/07/24 00:01:52;;;;;;;7.50;5.85;;;18.30;99.90;;;;;;6214312;23;20174;-72
2023/07/24 00:04:18;;;;;;;6.90;5.95;;;18.30;99.90;;;;;;6241690;23;20015;-72
2023/07/24 00:06:44;;;;;;;6.85;5.60;;;18.30;99.90;;;;;;6240749;23;20020;-72
2023/07/24 01:17:26;;;;;;;7.47;6.05;;;17.70;99.90;;;;;;6283619;22;20072;-71
2023/07/24 01:19:57;;;;;;;9.80;6.50;;;17.70;99.90;;;;;;6246076;22;20788;-72
2023/07/24 01:22:37;;;;;;;9.20;6.13;;;17.70;99.90;;;;;;6273297;22;20023;-72
2023/07/24 01:25:23;;;;;;;9.48;6.78;;;17.70;99.90;;;;;;6273555;22;20399;-72
2023/07/24 01:27:48;;;;;;;8.35;6.55;;;17.70;99.90;;;;;;6273233;22;20108;-72
2023/07/24 01:30:18;;;;;;;9.40;6.70;;;17.60;99.90;;;;;;6246275;22;20020;-72
2023/07/24 01:32:44;;;;;;;8.02;6.45;;;17.60;99.90;;;;;;6273661;22;20023;-72
2023/07/24 01:35:10;;;;;;;8.85;6.30;;;17.60;99.90;;;;;;6246120;22;20154;-71
2023/07/24 01:37:39;;;;;;;11.70;6.63;;;17.60;99.90;;;;;;6273578;22;20076;-72
2023/07/24 01:40:06;;;;;;;11.27;6.50;;;17.60;99.90;;;;;;6273621;22;20014;-71
2023/07/24 01:42:33;;;;;;;8.48;5.97;;;17.60;99.90;;;;;;6246034;22;20133;-71
2023/07/24 01:44:59;;;;;;;10.05;6.55;;;17.60;99.90;;;;;;6274676;22;20012;-71
2023/07/24 01:47:25;;;;;;;9.02;6.18;;;17.60;99.90;;;;;;6273590;22;20347;-71
2023/07/24 01:49:51;;;;;;;7.93;6.30;;;17.60;99.90;;;;;;6245733;22;20019;-72
2023/07/24 01:52:17;;;;;;;6.60;5.90;;;17.50;99.90;;;;;;6245800;22;20105;-71
2023/07/24 01:54:43;;;;;;;10.40;6.57;;;17.60;99.90;;;;;;6273250;22;20086;-71
2023/07/24 01:57:09;;;;;;;7.95;5.63;;;17.50;99.90;;;;;;6272811;22;20490;-72
2023/07/24 01:59:34;;;;;;;7.40;5.43;;;17.50;99.90;;;;;;6272569;22;20098;-71
2023/07/24 02:02:00;;;;;;;8.60;5.82;;;17.50;99.90;;;;;;6245993;22;20015;-71
2023/07/24 02:04:26;;;;;;;9.27;5.63;;;17.50;99.90;;;;;;6273000;22;20076;-72
2023/07/24 02:06:51;;;;;;;10.10;6.15;;;17.50;99.90;;;;;;6246158;22;20702;-72
2023/07/24 02:09:21;;;;;;;7.25;5.32;;;17.40;99.90;;;;;;6245894;22;20024;-71
2023/07/24 02:11:46;;;;;;;8.18;5.47;;;17.40;99.90;;;;;;6245790;22;20023;-72
2023/07/24 02:14:13;;;;;;;9.18;5.85;;;17.40;99.90;;;;;;6245498;22;20020;-72
2023/07/24 02:16:39;;;;;;;7.15;6.07;;;17.40;99.90;;;;;;6273365;22;20019;-71
2023/07/24 02:19:05;;;;;;;8.15;5.55;;;17.40;99.90;;;;;;6272117;22;20019;-71
2023/07/24 02:21:31;;;;;;;9.35;5.88;;;17.40;99.90;;;;;;6272833;22;20020;-72
2023/07/24 02:23:57;;;;;;;6.72;5.57;;;17.30;99.90;;;;;;6273425;22;20026;-72
2023/07/24 02:26:23;;;;;;;9.23;5.60;;;17.30;99.90;;;;;;6273203;22;20016;-71
2023/07/24 02:28:49;;;;;;;8.45;6.13;;;17.30;99.90;;;;;;6273226;22;20015;-72
2023/07/24 02:31:14;;;;;;;8.73;6.15;;;17.30;99.90;;;;;;6245796;22;20024;-72
2023/07/24 02:33:40;;;;;;;8.57;6.40;;;17.30;99.90;;;;;;6272623;22;20166;-72
2023/07/24 02:36:06;;;;;;;8.32;6.10;;;17.30;99.90;;;;;;6245317;22;20106;-72
2023/07/24 02:38:31;;;;;;;7.60;5.72;;;17.20;99.90;;;;;;6272465;22;20055;-72
2023/07/24 02:40:57;;;;;;;10.65;6.85;;;17.20;99.90;;;;;;6272359;22;20011;-72
2023/07/24 02:43:23;;;;;;;7.60;5.75;;;17.20;99.90;;;;;;6272392;22;20055;-72
2023/07/24 02:45:48;;;;;;;6.82;5.75;;;17.20;99.90;;;;;;6245290;22;20027;-72
2023/07/24 02:48:14;;;;;;;6.97;5.80;;;17.20;99.90;;;;;;6272416;22;20360;-72
2023/07/24 02:50:40;;;;;;;7.15;5.47;;;17.20;99.90;;;;;;6245095;22;20059;-72
2023/07/24 02:53:06;;;;;;;7.63;6.28;;;17.20;99.90;;;;;;6272643;22;20016;-71
2023/07/24 02:55:31;;;;;;;7.05;5.80;;;17.20;99.90;;;;;;6272526;22;20020;-71
2023/07/24 02:57:57;;;;;;;9.15;5.95;;;17.20;99.90;;;;;;6245063;22;20027;-72
2023/07/24 03:00:23;;;;;;;7.72;5.72;;;17.20;99.90;;;;;;6272720;22;20024;-72
2023/07/24 03:02:48;;;;;;;7.75;6.15;;;17.20;99.90;;;;;;6272781;22;20487;-72
2023/07/24 03:05:14;;;;;;;8.02;5.57;;;17.30;99.90;;;;;;6272644;22;20020;-72
2023/07/24 03:07:40;;;;;;;7.28;5.88;;;17.30;99.90;;;;;;6245197;22;20020;-71
2023/07/24 03:10:07;;;;;;;9.23;6.18;;;17.30;99.90;;;;;;6244965;22;20028;-72
2023/07/24 03:12:33;;;;;;;7.95;5.97;;;17.30;99.90;;;;;;6272169;22;20031;-72
2023/07/24 03:14:59;;;;;;;7.32;6.03;;;17.30;99.90;;;;;;6272287;22;20039;-72
2023/07/24 03:17:24;;;;;;;8.02;5.65;;;17.30;99.90;;;;;;6244986;22;20081;-71
2023/07/24 03:19:50;;;;;;;9.25;5.75;;;17.30;99.90;;;;;;6272058;22;20098;-71
2023/07/24 03:22:16;;;;;;;7.53;5.13;;;17.30;99.90;;;;;;6272389;22;20099;-72
2023/07/24 03:24:42;;;;;;;6.97;5.35;;;17.30;99.90;;;;;;6244546;22;20034;-72
2023/07/24 03:27:07;;;;;;;6.63;5.68;;;17.30;99.90;;;;;;6244794;22;20030;-72
2023/07/24 03:29:33;;;;;;;8.52;5.70;;;17.30;99.90;;;;;;6245099;22;20077;-72
2023/07/24 03:31:59;;;;;;;8.57;6.38;;;17.40;99.90;;;;;;6244832;22;20482;-72
2023/07/24 03:34:24;;;;;;;8.38;7.13;;;17.40;99.90;;;;;;6244774;22;20110;-72
2023/07/24 03:36:50;;;;;;;7.75;6.38;;;17.40;99.90;;;;;;6272341;22;20019;-71
2023/07/24 03:39:16;;;;;;;8.68;6.43;;;17.40;99.90;;;;;;6244675;22;20396;-71
2023/07/24 03:41:42;;;;;;;11.10;6.95;;;17.40;99.90;;;;;;6244672;22;20027;-71
2023/07/24 03:44:08;;;;;;;10.05;7.20;;;17.40;99.90;;;;;;6271902;22;20027;-72
2023/07/24 03:46:34;;;;;;;8.48;6.75;;;17.40;99.90;;;;;;6272174;22;20026;-72
2023/07/24 03:49:00;;;;;;;13.50;7.38;;;17.40;99.90;;;;;;6272123;22;20098;-72
2023/07/24 03:51:26;;;;;;;8.45;6.38;;;17.40;99.90;;;;;;6219448;22;20020;-72
2023/07/24 03:53:52;;;;;;;9.25;7.38;;;17.40;99.90;;;;;;6244301;22;20024;-72
2023/07/24 03:56:17;;;;;;;9.65;6.45;;;17.40;99.90;;;;;;6271861;22;20019;-71
2023/07/24 03:58:43;;;;;;;9.25;6.55;;;17.40;99.90;;;;;;6271156;22;20031;-72
2023/07/24 04:01:09;;;;;;;10.13;7.53;;;17.40;99.90;;;;;;6272123;22;20015;-72
2023/07/24 04:03:35;;;;;;;9.95;7.28;;;17.40;99.90;;;;;;6244317;22;20518;-72
2023/07/24 04:06:01;;;;;;;9.18;7.05;;;17.40;99.90;;;;;;6272024;22;20015;-72
2023/07/24 04:08:27;;;;;;;10.63;7.30;;;17.40;99.90;;;;;;6244113;22;20035;-71
2023/07/24 04:10:53;;;;;;;8.80;7.13;;;17.40;99.90;;;;;;6244189;22;20483;-71
2023/07/24 04:13:19;;;;;;;9.52;7.10;;;17.40;99.90;;;;;;6271427;22;20011;-72
2023/07/24 04:15:44;;;;;;;10.50;7.60;;;17.40;99.90;;;;;;6244339;22;20411;-72
2023/07/24 04:18:10;;;;;;;11.23;7.85;;;17.40;99.90;;;;;;6271603;22;20042;-71
2023/07/24 04:20:37;;;;;;;11.45;8.43;;;17.40;99.90;;;;;;6272020;22;20016;-72
2023/07/24 04:23:03;;;;;;;11.63;8.38;;;17.40;99.90;;;;;;6271242;22;20027;-72
2023/07/24 04:25:29;;;;;;;11.52;8.45;;;17.40;99.90;;;;;;6270857;22;20418;-71
2023/07/24 04:27:54;;;;;;;12.10;8.02;;;17.40;99.90;;;;;;6243812;22;20099;-71
2023/07/24 04:30:20;;;;;;;14.57;7.95;;;17.40;99.90;;;;;;6271405;22;20027;-72
2023/07/24 04:32:46;;;;;;;12.13;8.73;;;17.40;99.90;;;;;;6271496;22;20466;-71
2023/07/24 04:35:12;;;;;;;11.00;8.18;;;17.40;99.90;;;;;;6244384;22;20111;-72
2023/07/24 04:37:38;;;;;;;11.32;8.60;;;17.40;99.90;;;;;;6244336;22;20025;-72
2023/07/24 04:40:05;;;;;;;10.93;9.30;;;17.40;99.90;;;;;;6271876;22;20020;-71
2023/07/24 04:42:30;;;;;;;9.77;8.35;;;17.40;99.90;;;;;;6271319;22;20016;-71
2023/07/24 04:44:56;;;;;;;11.55;8.75;;;17.40;99.90;;;;;;6271511;22;20343;-71
2023/07/24 04:47:22;;;;;;;12.57;8.80;;;17.40;99.90;;;;;;6244181;22;20081;-71
2023/07/24 04:49:48;;;;;;;9.82;8.13;;;17.40;99.90;;;;;;6271881;22;20019;-72
2023/07/24 04:52:14;;;;;;;11.35;8.50;;;17.40;99.90;;;;;;6244290;22;20023;-71
2023/07/24 04:54:39;;;;;;;14.13;8.63;;;17.40;99.90;;;;;;6244437;22;20020;-71
2023/07/24 04:57:05;;;;;;;12.80;8.35;;;17.40;99.90;;;;;;6244475;22;20023;-72
2023/07/24 04:59:31;;;;;;;15.15;9.30;;;17.30;99.90;;;;;;6271773;22;20015;-72
2023/07/24 05:01:56;;;;;;;11.98;8.85;;;17.30;99.90;;;;;;6272131;22;20019;-72
2023/07/24 05:04:22;;;;;;;11.15;8.38;;;17.30;99.90;;;;;;6271607;22;20026;-71
2023/07/24 05:06:48;;;;;;;12.60;8.70;;;17.30;99.90;;;;;;6244170;22;20016;-71
2023/07/24 05:09:14;;;;;;;14.40;9.00;;;17.30;99.90;;;;;;6271793;22;20090;-71
2023/07/24 05:11:41;;;;;;;12.77;9.38;;;17.30;99.90;;;;;;6271215;22;20012;-71
2023/07/24 05:14:07;;;;;;;12.00;9.23;;;17.30;99.90;;;;;;6244278;22;20419;-71
2023/07/24 05:16:33;;;;;;;12.70;9.45;;;17.30;99.90;;;;;;6244242;22;20027;-71
2023/07/24 05:18:58;;;;;;;14.23;8.68;;;17.30;99.90;;;;;;6271224;22;20078;-71
2023/07/24 05:21:24;;;;;;;11.90;9.65;;;17.30;99.90;;;;;;6271713;22;20043;-71
2023/07/24 05:23:50;;;;;;;12.15;8.65;;;17.30;99.90;;;;;;6244446;22;20111;-71
2023/07/24 05:26:15;;;;;;;16.60;9.57;;;17.30;99.90;;;;;;6271290;22;20024;-71
2023/07/24 05:28:41;;;;;;;11.90;8.90;;;17.30;99.90;;;;;;6271682;22;20343;-71
2023/07/24 05:31:08;;;;;;;15.20;9.50;;;17.30;99.90;;;;;;6271553;22;20434;-71
2023/07/24 05:33:33;;;;;;;12.88;9.60;;;17.30;99.90;;;;;;6272260;22;20027;-72
2023/07/24 05:36:03;;;;;;;12.38;8.98;;;17.30;99.90;;;;;;6273465;22;20016;-72
2023/07/24 05:38:30;;;;;;;12.55;9.05;;;17.30;99.90;;;;;;6273482;22;20058;-72
2023/07/24 05:41:05;;;;;;;12.27;9.73;;;17.30;99.90;;;;;;6245967;22;20028;-72
2023/07/24 05:43:31;;;;;;;12.30;8.88;;;17.30;99.90;;;;;;6246154;22;20029;-71
2023/07/24 05:45:57;;;;;;;14.05;10.25;;;17.40;99.90;;;;;;6246035;22;20133;-71
2023/07/24 05:48:24;;;;;;;13.48;9.00;;;17.40;99.90;;;;;;6273106;22;20070;-71
2023/07/24 05:50:49;;;;;;;11.55;9.05;;;17.40;99.90;;;;;;6245990;22;20020;-71
2023/07/24 05:53:16;;;;;;;12.05;8.77;;;17.40;99.90;;;;;;6246092;22;20057;-71
2023/07/24 05:55:45;;;;;;;12.18;8.57;;;17.50;99.90;;;;;;6246204;22;20393;-71
2023/07/24 05:58:11;;;;;;;15.15;9.23;;;17.50;99.90;;;;;;6273175;22;20020;-71
2023/07/24 06:00:37;;;;;;;11.27;8.60;;;17.50;99.90;;;;;;6246057;22;20051;-71
2023/07/24 06:03:03;;;;;;;11.80;9.43;;;17.60;99.90;;;;;;6272991;22;20078;-71
2023/07/24 06:05:29;;;;;;;11.13;8.65;;;17.60;99.90;;;;;;6273103;22;20015;-71
2023/07/24 06:07:55;;;;;;;17.40;9.45;;;17.60;99.90;;;;;;6273574;22;20103;-71
2023/07/24 06:10:20;;;;;;;10.95;8.77;;;17.60;99.90;;;;;;6273321;22;20091;-71
2023/07/24 06:12:47;;;;;;;13.40;9.18;;;17.60;99.90;;;;;;6273177;22;20486;-71
2023/07/24 06:15:13;;;;;;;12.27;9.38;;;17.60;99.90;;;;;;6245775;22;20107;-71
2023/07/24 06:17:38;;;;;;;12.65;9.25;;;17.60;99.90;;;;;;6272169;22;20062;-71
2023/07/24 06:20:05;;;;;;;14.18;9.25;;;17.60;99.90;;;;;;6246760;22;20020;-71
2023/07/24 06:22:31;;;;;;;14.95;8.90;;;17.60;99.90;;;;;;6274301;22;20019;-71
2023/07/24 06:24:57;;;;;;;12.07;9.13;;;17.60;99.90;;;;;;6274948;22;20031;-71
2023/07/24 06:27:23;;;;;;;11.98;8.75;;;17.70;99.90;;;;;;6247358;22;20031;-71
2023/07/24 06:29:48;;;;;;;11.00;8.85;;;17.70;99.90;;;;;;6247013;22;20030;-71
2023/07/24 06:32:14;;;;;;;11.10;9.10;;;17.80;99.90;;;;;;6274484;22;20050;-71
2023/07/24 06:34:40;;;;;;;12.38;9.82;;;18.00;99.90;;;;;;6245992;22;20352;-71
2023/07/24 06:37:05;;;;;;;12.93;9.35;;;18.10;99.90;;;;;;6245689;22;20024;-71
2023/07/24 06:39:33;;;;;;;11.40;9.07;;;18.20;99.90;;;;;;6272890;22;20023;-71
2023/07/24 06:41:59;;;;;;;13.50;9.82;;;18.30;99.90;;;;;;6245706;22;20015;-71
2023/07/24 06:44:24;;;;;;;10.75;8.90;;;18.50;99.90;;;;;;6245371;22;20023;-71
2023/07/24 06:46:50;;;;;;;11.50;8.55;;;18.50;99.90;;;;;;6272613;22;20019;-71
2023/07/24 06:49:16;;;;;;;10.82;8.35;;;18.50;99.90;;;;;;6245605;22;20023;-71
2023/07/24 06:51:41;;;;;;;11.80;9.20;;;18.50;99.90;;;;;;6272850;22;20097;-71
2023/07/24 06:54:07;;;;;;;14.80;10.25;;;18.50;99.90;;;;;;6245252;22;20051;-71
2023/07/24 06:56:32;;;;;;;10.63;8.93;;;18.60;99.90;;;;;;6272967;22;20058;-72
2023/07/24 06:58:58;;;;;;;13.85;10.38;;;18.70;99.90;;;;;;6245488;22;20419;-71
2023/07/24 07:01:24;;;;;;;11.73;9.00;;;18.70;99.90;;;;;;6272631;22;20095;-71
2023/07/24 07:03:50;;;;;;;12.30;8.30;;;18.70;99.90;;;;;;6245477;22;20158;-71
2023/07/24 07:06:16;;;;;;;13.05;9.73;;;18.70;99.90;;;;;;6272766;22;20034;-70
2023/07/24 07:08:42;;;;;;;13.45;9.82;;;18.70;99.90;;;;;;6272452;22;20034;-71
2023/07/24 07:11:08;;;;;;;11.35;8.45;;;18.80;99.90;;;;;;6245395;22;20031;-71
2023/07/24 07:13:33;;;;;;;10.07;8.27;;;18.90;99.90;;;;;;6272717;22;20020;-71
2023/07/24 07:15:59;;;;;;;12.23;9.20;;;19.00;99.90;;;;;;6244861;22;20024;-71
2023/07/24 07:18:25;;;;;;;13.20;9.02;;;19.10;99.90;;;;;;6272012;22;20066;-71
2023/07/24 07:20:53;;;;;;;11.02;8.25;;;19.10;99.90;;;;;;6272390;22;20016;-71
2023/07/24 07:23:19;;;;;;;11.05;7.50;;;19.00;99.90;;;;;;6272629;22;20011;-71
2023/07/24 07:25:45;;;;;;;13.18;8.05;;;19.10;99.90;;;;;;6272491;22;20027;-71
2023/07/24 07:28:15;;;;;;;12.00;7.70;;;19.00;99.90;;;;;;6245022;22;20019;-71
2023/07/24 07:30:42;;;;;;;9.38;7.72;;;19.00;99.90;;;;;;6272698;22;20016;-71
2023/07/24 07:33:08;;;;;;;13.20;8.32;;;19.10;99.90;;;;;;6272396;22;20446;-71
2023/07/24 07:35:34;;;;;;;12.48;7.88;;;19.10;99.90;;;;;;6272297;22;20115;-71
2023/07/24 07:38:01;;;;;;;12.70;8.07;;;19.20;99.90;;;;;;6244671;22;20029;-71
2023/07/24 07:40:27;;;;;;;14.90;8.05;;;19.40;99.90;;;;;;6244844;22;20081;-71
2023/07/24 07:42:53;;;;;;;10.90;7.45;;;19.40;99.90;;;;;;6272238;22;20020;-72
2023/07/24 07:45:19;;;;;;;15.70;8.20;;;19.50;99.90;;;;;;6272221;22;20090;-72
2023/07/24 07:47:45;;;;;;;15.95;8.00;;;19.50;99.90;;;;;;6244577;22;20502;-72
2023/07/24 07:50:11;;;;;;;11.48;8.00;;;19.50;99.90;;;;;;6244821;22;20016;-72
2023/07/24 07:52:37;;;;;;;11.63;8.05;;;19.60;99.90;;;;;;6271860;22;20027;-72
2023/07/24 07:55:03;;;;;;;13.25;8.85;;;19.60;99.90;;;;;;6244649;22;20027;-72
2023/07/24 07:57:29;;;;;;;12.40;8.07;;;19.80;99.90;;;;;;6244086;22;20054;-72
2023/07/24 07:59:54;;;;;;;14.10;8.65;;;19.90;99.90;;;;;;6272105;22;20019;-72
2023/07/24 08:02:20;;;;;;;11.75;8.25;;;20.00;99.90;;;;;;6271903;22;20451;-70
2023/07/24 08:04:46;;;;;;;10.75;7.45;;;20.10;99.90;;;;;;6271115;22;20034;-70
2023/07/24 08:07:11;;;;;;;11.02;7.43;;;20.30;99.90;;;;;;6271413;22;20016;-70
2023/07/24 08:09:38;;;;;;;12.95;8.38;;;20.30;99.90;;;;;;6271744;22;20073;-73
2023/07/24 08:12:04;;;;;;;15.25;7.78;;;20.30;99.90;;;;;;6271980;22;20062;-70
2023/07/24 08:14:30;;;;;;;11.75;7.88;;;20.30;99.90;;;;;;6271521;22;20634;-70
2023/07/24 08:16:56;;;;;;;11.32;7.65;;;20.30;99.90;;;;;;6271446;22;20078;-69
2023/07/24 08:19:22;;;;;;;12.15;8.00;;;20.20;99.90;;;;;;6271575;22;20027;-71
2023/07/24 08:21:47;;;;;;;12.50;7.20;;;20.10;99.90;;;;;;6271599;22;20019;-72
2023/07/24 08:24:13;;;;;;;10.88;7.38;;;20.10;99.90;;;;;;6271906;22;20027;-70
2023/07/24 08:26:39;;;;;;;9.70;7.00;;;20.10;99.90;;;;;;6244070;22;20023;-70
2023/07/24 08:29:05;;;;;;;13.73;7.43;;;20.00;99.90;;;;;;6271431;22;20490;-71
2023/07/24 08:31:31;;;;;;;10.63;7.25;;;20.10;99.90;;;;;;6271490;22;20336;-68
2023/07/24 08:33:57;;;;;;;13.13;7.40;;;20.10;99.90;;;;;;6270130;22;20020;-68
2023/07/24 08:36:22;;;;;;;10.90;7.28;;;20.10;99.90;;;;;;6271405;22;20395;-69
2023/07/24 08:38:48;;;;;;;12.65;7.03;;;20.10;99.90;;;;;;6271628;22;20120;-68
2023/07/24 08:41:14;;;;;;;12.13;6.97;;;20.10;99.90;;;;;;6271621;22;20523;-68
2023/07/24 08:43:42;;;;;;;15.02;7.35;;;20.20;99.90;;;;;;6271652;22;20055;-68
2023/07/24 08:46:09;;;;;;;11.52;7.40;;;20.20;99.90;;;;;;6271381;22;20016;-69
2023/07/24 08:48:37;;;;;;;13.25;7.43;;;20.20;99.90;;;;;;6271107;22;20750;-68
2023/07/24 08:51:04;;;;;;;11.73;6.97;;;20.20;99.90;;;;;;6271643;22;20019;-69
2023/07/24 08:53:30;;;;;;;15.73;6.70;;;20.20;99.90;;;;;;6271442;22;20019;-68
2023/07/24 08:55:57;;;;;;;9.48;6.72;;;20.40;99.90;;;;;;6270850;22;20020;-68
2023/07/24 08:58:23;;;;;;;12.75;6.93;;;20.40;99.90;;;;;;6271255;22;20698;-69
2023/07/24 09:00:48;;;;;;;9.45;6.93;;;20.30;99.90;;;;;;6244364;22;20045;-68
2023/07/24 09:03:14;;;;;;;11.02;6.47;;;20.30;99.90;;;;;;6271348;22;20023;-69
2023/07/24 09:05:40;;;;;;;11.13;6.15;;;20.20;99.90;;;;;;6271644;22;20019;-69
2023/07/24 09:08:05;;;;;;;11.43;5.63;;;20.20;99.90;;;;;;6272898;22;20090;-69
2023/07/24 09:10:31;;;;;;;10.32;6.00;;;20.20;99.90;;;;;;6273521;22;20043;-68
2023/07/24 09:12:57;;;;;;;9.13;6.57;;;20.30;99.90;;;;;;6273017;22;20775;-69
2023/07/24 09:15:23;;;;;;;10.82;6.53;;;20.40;99.90;;;;;;6273285;22;20142;-70
2023/07/24 09:17:52;;;;;;;9.85;6.55;;;20.50;99.90;;;;;;6272838;22;20321;-70
2023/07/24 09:20:19;;;;;;;9.60;6.68;;;20.60;99.90;;;;;;6220608;22;20020;-71
2023/07/24 09:22:53;;;;;;;8.40;5.90;;;20.80;99.90;;;;;;6273013;22;20027;-70
2023/07/24 09:25:33;;;;;;;7.85;5.65;;;20.80;99.90;;;;;;6272844;22;20347;-70
2023/07/24 09:27:59;;;;;;;8.35;5.60;;;21.00;99.90;;;;;;6273272;22;20027;-70
2023/07/24 09:30:25;;;;;;;6.93;5.28;;;21.10;99.90;;;;;;6273077;22;20545;-70
2023/07/24 09:32:54;;;;;;;10.38;5.78;;;21.10;99.90;;;;;;6242778;22;20019;-70
2023/07/24 09:35:25;;;;;;;8.52;5.40;;;21.10;99.90;;;;;;6271668;22;20038;-70
2023/07/24 09:38:01;;;;;;;11.17;5.83;;;21.00;99.90;;;;;;6245377;22;20028;-70
2023/07/24 09:40:26;;;;;;;11.40;5.03;;;20.90;99.90;;;;;;6272572;22;20019;-70
2023/07/24 09:42:52;;;;;;;8.60;5.35;;;20.80;99.90;;;;;;6245274;22;20023;-70
2023/07/24 09:45:18;;;;;;;10.77;5.85;;;20.80;99.90;;;;;;6271857;22;20020;-71
2023/07/24 09:47:44;;;;;;;7.85;5.05;;;20.80;99.90;;;;;;6244717;22;20177;-70
2023/07/24 09:50:10;;;;;;;13.60;5.90;;;21.00;99.90;;;;;;6245078;22;20020;-69
2023/07/24 09:52:41;;;;;;;8.20;5.45;;;21.10;99.90;;;;;;6220662;22;20027;-71
2023/07/24 09:55:22;;;;;;;8.55;5.40;;;21.10;99.90;;;;;;6273022;22;20047;-71
2023/07/24 09:57:51;;;;;;;11.48;5.32;;;21.30;99.90;;;;;;6245187;22;20020;-71
2023/07/24 10:00:17;;;;;;;8.50;5.22;;;21.40;99.90;;;;;;6219994;22;20015;-71
2023/07/24 10:02:44;;;;;;;7.65;4.97;;;21.40;99.90;;;;;;6272304;22;20031;-71
2023/07/24 10:05:11;;;;;;;10.10;5.28;;;21.50;99.90;;;;;;6272173;22;20443;-69
2023/07/24 10:07:37;;;;;;;8.57;5.00;;;21.60;99.90;;;;;;6272334;22;20055;-71
2023/07/24 10:10:05;;;;;;;9.85;5.63;;;21.50;99.90;;;;;;6272550;22;20348;-70
2023/07/24 10:12:32;;;;;;;8.95;4.95;;;21.50;99.90;;;;;;6245103;22;20448;-71
2023/07/24 10:14:59;;;;;;;13.38;6.53;;;21.40;99.90;;;;;;6272029;22;20035;-70
2023/07/24 10:17:38;;;;;;;11.07;5.72;;;21.20;99.90;;;;;;6272179;22;20015;-71
2023/07/24 10:20:05;;;;;;;7.78;5.35;;;21.10;99.90;;;;;;6244311;22;20098;-70
2023/07/24 10:22:31;;;;;;;9.63;5.40;;;21.10;99.90;;;;;;6245195;22;20023;-69
2023/07/24 10:24:57;;;;;;;12.43;5.97;;;21.00;99.90;;;;;;6272297;22;20460;-69
2023/07/24 10:27:28;;;;;;;8.82;5.97;;;21.00;99.90;;;;;;6272357;22;20024;-69
2023/07/24 10:30:04;;;;;;;11.88;6.18;;;20.90;99.90;;;;;;6272701;22;20082;-69
2023/07/24 10:32:30;;;;;;;10.48;6.45;;;20.90;99.90;;;;;;6245149;22;20084;-70
2023/07/24 10:35:09;;;;;;;10.70;5.95;;;20.80;99.90;;;;;;6272335;22;20625;-69
2023/07/24 10:37:36;;;;;;;8.73;5.40;;;20.80;99.90;;;;;;6247232;22;20073;-69
2023/07/24 10:40:04;;;;;;;13.38;5.38;;;20.80;99.90;;;;;;6272124;22;20524;-69
2023/07/24 10:42:33;;;;;;;13.35;5.85;;;20.90;99.90;;;;;;6272697;22;20019;-69
2023/07/24 10:45:17;;;;;;;10.18;5.45;;;21.10;99.90;;;;;;6244808;22;20128;-69
2023/07/24 10:47:43;;;;;;;8.48;5.30;;;21.20;99.90;;;;;;6245080;22;20055;-69
2023/07/24 10:50:09;;;;;;;13.80;5.90;;;21.40;99.90;;;;;;6272644;22;20070;-71
2023/07/24 10:52:34;;;;;;;12.23;5.78;;;21.50;99.90;;;;;;6246141;22;20344;-70
2023/07/24 10:55:03;;;;;;;8.23;5.20;;;21.70;99.90;;;;;;6273034;22;20022;-70
2023/07/24 10:57:30;;;;;;;7.82;5.00;;;21.80;99.90;;;;;;6272502;22;20016;-70
2023/07/24 10:59:55;;;;;;;6.70;4.80;;;21.90;99.90;;;;;;6272106;22;20076;-70
2023/07/24 11:02:21;;;;;;;8.23;4.30;;;22.00;99.90;;;;;;6245122;22;20023;-70
2023/07/24 11:04:47;;;;;;;8.68;4.68;;;22.10;99.90;;;;;;6272186;22;20020;-70
2023/07/24 11:07:14;;;;;;;7.63;5.30;;;22.30;99.90;;;;;;6271793;22;20030;-70
2023/07/24 11:09:40;;;;;;;9.23;4.88;;;22.30;99.90;;;;;;6272143;22;20026;-70
2023/07/24 11:12:16;;;;;;;8.00;5.05;;;22.30;99.90;;;;;;6272346;22;20015;-71
2023/07/24 11:14:49;;;;;;;8.48;4.43;;;22.20;99.90;;;;;;6271947;22;20344;-69
2023/07/24 11:17:15;;;;;;;9.68;4.45;;;22.30;99.90;;;;;;6272159;22;20337;-68
2023/07/24 11:19:41;;;;;;;12.90;4.43;;;22.30;99.90;;;;;;6271582;22;20019;-68
2023/07/24 11:22:07;;;;;;;7.22;4.90;;;22.30;99.90;;;;;;6272388;22;20020;-68
2023/07/24 11:24:33;;;;;;;8.05;4.43;;;22.30;99.90;;;;;;6272201;22;20039;-69
2023/07/24 11:26:58;;;;;;;7.20;4.32;;;22.30;99.90;;;;;;6270924;22;20015;-69
2023/07/24 11:29:24;;;;;;;5.57;4.07;;;22.40;99.90;;;;;;6271515;22;20020;-69
2023/07/24 11:31:58;;;;;;;6.88;4.38;;;22.40;99.90;;;;;;6271579;22;20015;-69
2023/07/24 11:34:24;;;;;;;10.43;4.10;;;22.40;99.90;;;;;;6271658;22;20436;-69
2023/07/24 11:36:50;;;;;;;8.32;4.25;;;22.30;99.90;;;;;;6244518;22;20099;-69
2023/07/24 11:39:23;;;;;;;9.95;4.38;;;22.30;99.90;;;;;;6244351;22;20054;-69
2023/07/24 11:41:49;;;;;;;6.25;3.95;;;22.30;99.90;;;;;;6244692;22;20020;-68
2023/07/24 11:44:17;;;;;;;11.15;4.03;;;22.30;99.90;;;;;;6271327;22;20400;-69
2023/07/24 11:46:43;;;;;;;12.15;4.55;;;22.30;99.90;;;;;;6219243;22;20027;-69
2023/07/24 11:49:09;;;;;;;7.40;4.22;;;22.30;99.90;;;;;;6271681;22;20016;-69
2023/07/24 11:51:37;;;;;;;10.23;4.53;;;22.20;99.90;;;;;;6272084;22;20054;-69
2023/07/24 11:54:07;;;;;;;9.15;4.65;;;22.30;99.90;;;;;;6271778;22;20094;-68
2023/07/24 11:56:33;;;;;;;8.63;4.32;;;22.20;99.90;;;;;;6271613;22;20091;-69
2023/07/24 11:59:12;;;;;;;7.35;4.07;;;22.30;99.90;;;;;;6271776;22;20023;-69
2023/07/24 12:01:38;;;;;;;8.93;4.93;;;22.30;99.90;;;;;;6272101;22;20356;-69
2023/07/24 12:04:04;;;;;;;9.10;5.20;;;22.20;99.90;;;;;;6271838;22;20021;-69
2023/07/24 12:06:32;;;;;;;8.00;4.65;;;22.30;99.90;;;;;;6271857;22;20491;-69
2023/07/24 12:09:04;;;;;;;6.28;4.35;;;22.20;99.90;;;;;;6271408;22;20020;-69
2023/07/24 12:11:31;;;;;;;8.32;4.28;;;22.20;99.90;;;;;;6244214;22;20085;-69
2023/07/24 12:13:57;;;;;;;8.27;3.70;;;22.10;99.90;;;;;;6271396;22;20012;-69
2023/07/24 12:16:23;;;;;;;9.63;4.20;;;22.20;99.90;;;;;;6271000;22;20046;-69
2023/07/24 12:18:48;;;;;;;7.72;4.15;;;22.20;99.90;;;;;;6270738;22;20024;-69
2023/07/24 12:21:14;;;;;;;8.52;3.90;;;22.20;99.90;;;;;;6270633;22;20348;-69
2023/07/24 12:23:40;;;;;;;10.30;4.50;;;22.20;99.90;;;;;;6270441;22;20020;-69
2023/07/24 12:26:05;;;;;;;8.77;4.25;;;22.30;99.90;;;;;;6270730;22;20012;-69
2023/07/24 12:28:31;;;;;;;10.38;4.20;;;22.30;99.90;;;;;;6270679;22;20379;-68
2023/07/24 12:30:57;;;;;;;14.27;4.85;;;22.30;99.90;;;;;;6271361;22;20020;-69
2023/07/24 12:33:23;;;;;;;9.98;4.50;;;22.30;99.90;;;;;;6271496;22;20028;-69
2023/07/24 12:35:55;;;;;;;7.30;4.20;;;22.30;99.90;;;;;;6271206;22;20027;-69
2023/07/24 12:38:21;;;;;;;9.55;4.80;;;22.30;99.90;;;;;;6271824;22;20030;-68
2023/07/24 12:40:47;;;;;;;9.85;4.65;;;22.30;99.90;;;;;;6271143;22;20695;-68
2023/07/24 12:43:14;;;;;;;9.10;4.70;;;22.30;99.90;;;;;;6272701;22;20030;-69
2023/07/24 12:45:40;;;;;;;9.18;5.10;;;22.30;99.90;;;;;;6273549;22;20020;-68
2023/07/24 12:48:05;;;;;;;9.63;4.28;;;22.40;99.90;;;;;;6273162;22;20107;-69
2023/07/24 12:50:31;;;;;;;6.70;4.07;;;22.50;99.90;;;;;;6273512;22;20023;-69
2023/07/24 12:52:57;;;;;;;9.15;4.50;;;22.60;99.90;;;;;;6273500;22;20019;-69
2023/07/24 12:55:22;;;;;;;8.25;3.95;;;22.50;99.90;;;;;;6273177;22;20387;-68
2023/07/24 12:57:48;;;;;;;5.88;4.00;;;22.60;99.90;;;;;;6245459;22;20431;-69
2023/07/24 13:00:14;;;;;;;5.70;3.95;;;22.70;99.90;;;;;;6273683;22;20011;-68
2023/07/24 13:02:40;;;;;;;7.97;4.20;;;22.80;99.90;;;;;;6245968;22;20103;-68
2023/07/24 13:05:06;;;;;;;7.13;3.97;;;22.90;99.90;;;;;;6273490;22;20043;-68
2023/07/24 13:07:31;;;;;;;10.07;4.32;;;23.00;99.90;;;;;;6273410;22;20069;-69
2023/07/24 13:09:57;;;;;;;6.93;4.25;;;22.90;99.90;;;;;;6273414;22;20011;-68
2023/07/24 13:12:23;;;;;;;9.50;4.28;;;22.80;99.90;;;;;;6273470;22;20058;-68
2023/07/24 13:14:48;;;;;;;7.78;4.20;;;22.80;99.90;;;;;;6273751;22;20008;-68
2023/07/24 13:17:14;;;;;;;6.40;3.85;;;22.80;99.90;;;;;;6273276;22;20024;-68
2023/07/24 13:19:40;;;;;;;11.18;4.13;;;22.90;99.90;;;;;;6272921;22;20023;-70
2023/07/24 13:22:06;;;;;;;7.82;4.70;;;22.90;99.90;;;;;;6273593;22;20018;-69
2023/07/24 13:24:32;;;;;;;6.72;4.03;;;23.00;99.90;;;;;;6273029;22;20019;-69
2023/07/24 13:26:57;;;;;;;11.05;4.88;;;23.20;99.90;;;;;;6272674;22;20669;-69
2023/07/24 13:29:23;;;;;;;7.78;5.03;;;23.20;99.90;;;;;;6273078;22;20031;-69
2023/07/24 13:31:52;;;;;;;8.45;5.18;;;23.10;99.90;;;;;;6272778;22;20060;-69
2023/07/24 13:34:19;;;;;;;7.63;4.63;;;23.00;99.90;;;;;;6273154;22;20016;-69
2023/07/24 13:36:46;;;;;;;8.38;4.65;;;22.90;99.90;;;;;;6272789;22;20133;-69
2023/07/24 13:39:12;;;;;;;9.35;5.28;;;22.80;99.90;;;;;;6245376;22;20031;-69
2023/07/24 13:41:38;;;;;;;9.95;5.22;;;22.90;99.90;;;;;;6273100;22;20019;-69
2023/07/24 13:44:04;;;;;;;8.38;3.63;;;22.90;99.90;;;;;;6272767;22;20094;-69
2023/07/24 13:46:30;;;;;;;13.95;3.50;;;22.60;99.90;;;;;;6272676;22;20073;-69